Belle Rose, Louisiana
Current Conditions -  °F | °C
As of 12:15 PM on Monday 24 Nov 2014 (Local Time) from KL38 Reporting Station
Clear Clear  
Wind Chill: 65°   Ceiling: Unl
Heat Index: 65°   Visibility: 10mi
Dew Point: 47°   Wind: 13mph
Humidity: 51%   Direction: 320°NW
Pressure: 29.9"   Gusts: 17mph
Location:  30.05°N, 91.04°W
Report Text: KL38 241815Z AUTO 32011G15KT 10SM CLR 19/08 A2990 RMK AO2 T01850083
Loading
Personal Weather Stations






























Interactive Weather Map New forecast layout! Learn more

10-Day Weather Forecast

Advertisements
Track Severe Weather on mobile